createdAt,value
2018-02-11T00:00:55.643Z,5.80
2018-02-11T00:01:55.601Z,5.80
2018-02-11T00:02:55.545Z,5.50
2018-02-11T00:03:55.500Z,5.10
2018-02-11T00:04:55.451Z,5.30
2018-02-11T00:05:55.396Z,6.00
2018-02-11T00:06:55.379Z,5.90
2018-02-11T00:07:55.301Z,5.70
2018-02-11T00:08:55.248Z,5.60
2018-02-11T00:09:55.200Z,5.70
2018-02-11T00:10:55.153Z,5.60
2018-02-11T00:11:55.102Z,5.80
2018-02-11T00:12:55.051Z,6.40
2018-02-11T00:13:55.007Z,6.10
2018-02-11T00:14:54.954Z,5.60
2018-02-11T00:15:54.904Z,6.10
2018-02-11T00:16:54.854Z,6.20
2018-02-11T00:17:54.809Z,6.00
2018-02-11T00:18:54.756Z,5.60
2018-02-11T00:19:54.710Z,5.70
2018-02-11T00:20:54.655Z,5.90
2018-02-11T00:21:54.613Z,5.80
2018-02-11T00:22:54.562Z,6.30
2018-02-11T00:23:54.511Z,6.30
2018-02-11T00:24:54.482Z,6.20
2018-02-11T00:25:54.411Z,6.30
2018-02-11T00:26:54.364Z,6.40
2018-02-11T00:27:54.314Z,6.80
2018-02-11T00:28:54.291Z,6.60
2018-02-11T00:29:54.210Z,7.50
2018-02-11T00:30:54.162Z,6.60
2018-02-11T00:31:54.114Z,7.10
2018-02-11T00:32:54.063Z,6.90
2018-02-11T00:33:54.015Z,7.30
2018-02-11T00:34:53.968Z,7.40
2018-02-11T00:35:53.917Z,7.00
2018-02-11T00:36:53.864Z,7.10
2018-02-11T00:37:53.817Z,7.40
2018-02-11T00:38:53.769Z,7.30
2018-02-11T00:39:53.717Z,7.50
2018-02-11T00:40:53.666Z,7.90
2018-02-11T00:41:53.621Z,8.00
2018-02-11T00:42:53.569Z,8.30
2018-02-11T00:43:53.517Z,8.20
2018-02-11T00:44:53.470Z,8.40
2018-02-11T00:45:53.418Z,8.50
2018-02-11T00:46:53.377Z,8.80
2018-02-11T00:47:53.318Z,9.30
2018-02-11T00:48:53.273Z,9.20
2018-02-11T00:49:53.222Z,9.60
2018-02-11T00:50:53.174Z,9.60
2018-02-11T00:51:53.150Z,10.10
2018-02-11T00:52:53.074Z,9.70
2018-02-11T00:53:53.023Z,9.90
2018-02-11T00:54:52.974Z,10.10
2018-02-11T00:55:52.924Z,10.20
2018-02-11T00:56:52.870Z,9.00
2018-02-11T00:57:52.821Z,9.00
2018-02-11T00:58:52.821Z,9.30
2018-02-11T00:59:52.722Z,9.40
2018-02-11T01:00:52.674Z,9.40
2018-02-11T01:01:52.624Z,9.20
2018-02-11T01:02:52.569Z,10.60
2018-02-11T01:03:52.525Z,9.90
2018-02-11T01:04:52.481Z,9.10
2018-02-11T01:05:52.425Z,9.40
2018-02-11T01:06:52.374Z,9.20
2018-02-11T01:07:52.324Z,8.80
2018-02-11T01:08:52.274Z,9.30
2018-02-11T01:09:52.224Z,9.90
2018-02-11T01:10:52.175Z,8.80
2018-02-11T01:11:52.124Z,10.10
2018-02-11T01:12:52.070Z,8.90
2018-02-11T01:13:52.025Z,9.10
2018-02-11T01:14:51.973Z,9.50
2018-02-11T01:15:51.922Z,9.40
2018-02-11T01:16:51.874Z,9.30
2018-02-11T01:17:51.822Z,9.30
2018-02-11T01:18:51.773Z,10.00
2018-02-11T01:19:51.721Z,10.10
2018-02-11T01:20:51.671Z,9.80
2018-02-11T01:21:51.623Z,9.50
2018-02-11T01:22:51.573Z,9.30
2018-02-11T01:23:51.525Z,9.50
2018-02-11T01:24:51.478Z,9.90
2018-02-11T01:25:51.422Z,9.50
2018-02-11T01:26:51.371Z,10.00
2018-02-11T01:27:51.323Z,9.90
2018-02-11T01:28:51.276Z,9.60
2018-02-11T01:29:51.270Z,10.20
2018-02-11T01:30:51.170Z,10.30
2018-02-11T01:31:51.122Z,10.00
2018-02-11T01:32:51.073Z,11.00
2018-02-11T01:33:51.020Z,10.60
2018-02-11T01:34:50.972Z,10.40
2018-02-11T01:35:50.926Z,10.30
2018-02-11T01:36:50.876Z,10.90
2018-02-11T01:37:50.820Z,10.70
2018-02-11T01:38:50.769Z,10.30
2018-02-11T01:39:50.723Z,10.50
2018-02-11T01:40:50.673Z,10.80
2018-02-11T01:41:50.624Z,10.70
2018-02-11T01:42:50.569Z,10.30
2018-02-11T01:43:50.521Z,11.10
2018-02-11T01:44:50.473Z,10.30
2018-02-11T01:45:50.420Z,10.70
2018-02-11T01:46:50.371Z,11.40
2018-02-11T01:47:50.326Z,11.00
2018-02-11T01:48:50.266Z,11.30
2018-02-11T01:49:50.219Z,11.10
2018-02-11T01:50:50.172Z,10.90
2018-02-11T01:51:50.120Z,10.60
2018-02-11T01:52:50.069Z,11.30
2018-02-11T01:53:50.017Z,10.80
2018-02-11T01:54:49.970Z,11.20
2018-02-11T01:55:49.936Z,11.00
2018-02-11T01:56:49.866Z,10.50
2018-02-11T01:57:49.825Z,9.70
2018-02-11T01:58:49.771Z,9.90
2018-02-11T01:59:49.719Z,10.30
2018-02-11T02:00:49.672Z,10.40
2018-02-11T02:01:49.618Z,10.60
2018-02-11T02:02:49.569Z,10.80
2018-02-11T02:03:49.517Z,10.30
2018-02-11T02:04:49.467Z,9.70
2018-02-11T02:05:49.417Z,9.70
2018-02-11T02:06:49.378Z,9.60
2018-02-11T02:07:49.318Z,9.60
2018-02-11T02:08:49.278Z,9.80
2018-02-11T02:09:49.215Z,9.20
2018-02-11T02:10:49.182Z,9.40
2018-02-11T02:11:49.120Z,9.50
2018-02-11T02:12:49.066Z,9.70
2018-02-11T02:13:49.018Z,9.70
2018-02-11T02:14:48.969Z,9.90
2018-02-11T02:15:48.926Z,9.40
2018-02-11T02:16:48.865Z,9.00
2018-02-11T02:17:48.815Z,9.40
2018-02-11T02:18:48.764Z,9.90
2018-02-11T02:19:48.714Z,8.90
2018-02-11T02:20:48.668Z,8.70
2018-02-11T02:21:48.614Z,8.80
2018-02-11T02:22:48.563Z,8.10
2018-02-11T02:23:48.514Z,8.00
2018-02-11T02:24:48.467Z,8.00
2018-02-11T02:25:48.419Z,8.30
2018-02-11T02:26:48.366Z,7.70
2018-02-11T02:27:48.314Z,8.40
2018-02-11T02:28:48.263Z,8.60
2018-02-11T02:29:48.212Z,8.00
2018-02-11T02:30:48.165Z,7.40
2018-02-11T02:31:48.113Z,7.60
2018-02-11T02:32:48.066Z,8.50
2018-02-11T02:33:48.016Z,8.20
2018-02-11T02:34:47.968Z,8.00
2018-02-11T02:35:47.913Z,7.90
2018-02-11T02:36:47.864Z,7.70
2018-02-11T02:37:47.816Z,8.60
2018-02-11T02:38:47.762Z,7.80
2018-02-11T02:39:47.713Z,8.00
2018-02-11T02:40:47.663Z,7.40
2018-02-11T02:41:47.614Z,7.30
2018-02-11T02:42:47.565Z,7.00
2018-02-11T02:43:47.517Z,6.80
2018-02-11T02:44:47.469Z,8.10
2018-02-11T02:45:47.420Z,7.60
2018-02-11T02:46:47.364Z,6.80
2018-02-11T02:47:47.314Z,7.00
2018-02-11T02:48:47.265Z,7.00
2018-02-11T02:49:47.220Z,6.90
2018-02-11T02:50:47.165Z,7.30
2018-02-11T02:51:47.117Z,7.10
2018-02-11T02:52:47.066Z,7.40
2018-02-11T02:53:47.015Z,7.50
2018-02-11T02:54:46.967Z,7.00
2018-02-11T02:55:46.922Z,6.90
2018-02-11T02:56:46.866Z,6.30
2018-02-11T02:57:46.818Z,6.80
2018-02-11T02:58:46.769Z,7.00
2018-02-11T02:59:46.718Z,6.80
2018-02-11T03:00:46.664Z,6.90
2018-02-11T03:01:46.622Z,7.00
2018-02-11T03:02:46.570Z,7.20
2018-02-11T03:03:46.516Z,6.80
2018-02-11T03:04:46.468Z,6.50
2018-02-11T03:05:46.419Z,7.30
2018-02-11T03:06:46.371Z,6.50
2018-02-11T03:07:46.316Z,6.70
2018-02-11T03:08:46.269Z,6.90
2018-02-11T03:09:46.215Z,6.40
2018-02-11T03:10:46.168Z,6.10
2018-02-11T03:11:46.117Z,6.40
2018-02-11T03:12:46.070Z,6.00
2018-02-11T03:13:46.017Z,6.50
2018-02-11T03:14:45.971Z,6.80
2018-02-11T03:15:45.917Z,6.40
2018-02-11T03:16:45.868Z,6.30
2018-02-11T03:17:45.816Z,5.80
2018-02-11T03:18:45.769Z,6.10
2018-02-11T03:19:45.717Z,6.20
2018-02-11T03:20:45.668Z,6.80
2018-02-11T03:21:45.617Z,6.20
2018-02-11T03:22:45.568Z,6.20
2018-02-11T03:23:45.521Z,6.00
2018-02-11T03:24:45.468Z,6.00
2018-02-11T03:25:45.416Z,6.60
2018-02-11T03:26:45.368Z,5.70
2018-02-11T03:27:45.319Z,5.80
2018-02-11T03:28:45.271Z,5.30
2018-02-11T03:29:45.217Z,5.70
2018-02-11T03:30:45.179Z,5.70
2018-02-11T03:31:45.118Z,5.20
2018-02-11T03:32:45.069Z,5.70
2018-02-11T03:33:45.022Z,5.20
2018-02-11T03:34:44.998Z,5.90
2018-02-11T03:35:44.922Z,5.40
2018-02-11T03:36:44.888Z,5.40
2018-02-11T03:37:44.844Z,5.90
2018-02-11T03:38:44.770Z,5.80
2018-02-11T03:39:44.717Z,5.40
2018-02-11T03:40:44.717Z,5.20
2018-02-11T03:41:44.622Z,5.60
2018-02-11T03:42:44.571Z,5.70
2018-02-11T03:43:44.524Z,5.60
2018-02-11T03:44:44.471Z,5.20
2018-02-11T03:45:44.421Z,5.30
2018-02-11T03:46:44.372Z,5.60
2018-02-11T03:47:44.327Z,5.50
2018-02-11T03:48:44.270Z,4.90
2018-02-11T03:49:44.223Z,5.40
2018-02-11T03:50:44.179Z,5.30
2018-02-11T03:51:44.125Z,5.20
2018-02-11T03:52:44.075Z,4.90
2018-02-11T03:53:44.026Z,5.50
2018-02-11T03:54:43.974Z,5.20
2018-02-11T03:55:43.930Z,5.80
2018-02-11T03:56:43.878Z,5.20
2018-02-11T03:57:43.826Z,5.50
2018-02-11T03:58:43.778Z,5.30
2018-02-11T03:59:43.726Z,5.30
2018-02-11T04:00:43.674Z,5.20
2018-02-11T04:01:43.630Z,5.50
2018-02-11T04:02:43.582Z,5.30
2018-02-11T04:03:43.526Z,5.50
2018-02-11T04:04:43.478Z,5.70
2018-02-11T04:05:43.428Z,5.30
2018-02-11T04:06:43.376Z,5.20
2018-02-11T04:07:43.325Z,5.20
2018-02-11T04:08:43.274Z,5.50
2018-02-11T04:09:43.225Z,5.10
2018-02-11T04:10:43.177Z,5.40
2018-02-11T04:11:43.127Z,5.70
2018-02-11T04:12:43.078Z,5.50
2018-02-11T04:13:43.027Z,5.70
2018-02-11T04:14:42.979Z,5.90
2018-02-11T04:15:42.928Z,5.40
2018-02-11T04:16:42.878Z,5.30
2018-02-11T04:17:42.835Z,5.50
2018-02-11T04:18:42.779Z,5.50
2018-02-11T04:19:42.729Z,5.00
2018-02-11T04:20:42.680Z,5.50
2018-02-11T04:21:42.628Z,5.30
2018-02-11T04:22:42.578Z,5.10
2018-02-11T04:23:42.530Z,5.50
2018-02-11T04:24:42.487Z,5.60
2018-02-11T04:25:42.431Z,5.70
2018-02-11T04:26:42.382Z,5.60
2018-02-11T04:27:42.332Z,4.80
2018-02-11T04:28:42.280Z,5.40
2018-02-11T04:29:42.232Z,5.30
2018-02-11T04:30:42.180Z,5.30
2018-02-11T04:31:42.132Z,5.00
2018-02-11T04:32:42.087Z,5.80
2018-02-11T04:33:42.031Z,5.50
2018-02-11T04:34:41.981Z,5.80
2018-02-11T04:35:41.937Z,5.00
2018-02-11T04:36:41.882Z,5.30
2018-02-11T04:37:41.834Z,5.20
2018-02-11T04:38:41.782Z,5.20
2018-02-11T04:39:41.734Z,5.30
2018-02-11T04:40:41.684Z,5.10
2018-02-11T04:41:41.634Z,5.70
2018-02-11T04:42:41.584Z,5.20
2018-02-11T04:43:41.538Z,5.00
2018-02-11T04:44:41.488Z,5.40
2018-02-11T04:45:41.433Z,5.70
2018-02-11T04:46:41.388Z,5.70
2018-02-11T04:47:41.341Z,5.50
2018-02-11T04:48:41.288Z,5.00
2018-02-11T04:49:41.237Z,5.20
2018-02-11T04:50:41.187Z,6.00
2018-02-11T04:51:41.137Z,5.90
2018-02-11T04:52:41.088Z,5.40
2018-02-11T04:53:41.040Z,5.60
2018-02-11T04:54:40.992Z,5.40
2018-02-11T04:55:40.940Z,5.20
2018-02-11T04:56:40.890Z,5.80
2018-02-11T04:57:40.840Z,5.70
2018-02-11T04:58:40.789Z,5.40
2018-02-11T04:59:40.736Z,5.50
2018-02-11T05:00:40.692Z,6.00
2018-02-11T05:01:40.641Z,6.20
2018-02-11T05:02:40.590Z,5.50
2018-02-11T05:03:40.540Z,5.50
2018-02-11T05:04:40.489Z,6.40
2018-02-11T05:05:40.439Z,5.70
2018-02-11T05:06:40.394Z,5.20
2018-02-11T05:07:40.341Z,6.10
2018-02-11T05:08:40.291Z,5.50
2018-02-11T05:09:40.242Z,5.80
2018-02-11T05:10:40.193Z,5.60
2018-02-11T05:11:40.144Z,5.40
2018-02-11T05:12:40.096Z,5.40
2018-02-11T05:13:40.042Z,5.60
2018-02-11T05:14:39.992Z,5.50
2018-02-11T05:15:39.943Z,5.40
2018-02-11T05:16:39.896Z,5.60
2018-02-11T05:17:39.844Z,5.00
2018-02-11T05:18:39.795Z,5.70
2018-02-11T05:19:39.743Z,6.30
2018-02-11T05:20:39.694Z,5.70
2018-02-11T05:21:39.645Z,6.10
2018-02-11T05:22:39.595Z,5.60
2018-02-11T05:23:39.549Z,5.30
2018-02-11T05:24:39.501Z,5.20
2018-02-11T05:25:39.446Z,5.20
2018-02-11T05:26:39.396Z,5.50
2018-02-11T05:27:39.347Z,5.30
2018-02-11T05:28:39.299Z,5.70
2018-02-11T05:29:39.250Z,6.00
2018-02-11T05:30:39.196Z,6.00
2018-02-11T05:31:39.146Z,5.30
2018-02-11T05:32:39.098Z,5.30
2018-02-11T05:33:39.046Z,6.30
2018-02-11T05:34:38.998Z,5.80
2018-02-11T05:35:38.950Z,5.70
2018-02-11T05:36:38.899Z,5.60
2018-02-11T05:37:38.851Z,5.30
2018-02-11T05:38:38.800Z,6.00
2018-02-11T05:39:38.748Z,5.80
2018-02-11T05:40:38.699Z,6.20
2018-02-11T05:41:38.650Z,5.60
2018-02-11T05:42:38.601Z,5.50
2018-02-11T05:43:38.553Z,6.10
2018-02-11T05:44:38.502Z,6.00
2018-02-11T05:45:38.451Z,5.60
2018-02-11T05:46:38.402Z,5.70
2018-02-11T05:47:38.354Z,5.80
2018-02-11T05:48:38.305Z,5.50
2018-02-11T05:49:38.251Z,5.20
2018-02-11T05:50:38.203Z,6.10
2018-02-11T05:51:38.153Z,5.70
2018-02-11T05:52:38.110Z,6.20
2018-02-11T05:53:38.055Z,5.30
2018-02-11T05:54:38.008Z,6.00
2018-02-11T05:55:37.957Z,5.90
2018-02-11T05:56:37.904Z,5.70
2018-02-11T05:57:37.859Z,5.20
2018-02-11T05:58:37.807Z,5.60
2018-02-11T05:59:37.759Z,6.20
2018-02-11T06:00:37.708Z,6.20
2018-02-11T06:01:37.657Z,5.60
2018-02-11T06:02:37.608Z,5.80
2018-02-11T06:03:37.560Z,6.00
2018-02-11T06:04:37.511Z,6.20
2018-02-11T06:05:37.464Z,6.20
2018-02-11T06:06:37.412Z,5.60
2018-02-11T06:07:37.361Z,5.80
2018-02-11T06:08:37.307Z,5.90
2018-02-11T06:09:37.262Z,5.90
2018-02-11T06:10:37.211Z,5.90
2018-02-11T06:11:37.160Z,6.00
2018-02-11T06:12:37.115Z,6.10
2018-02-11T06:13:37.065Z,7.00
2018-02-11T06:14:37.014Z,6.00
2018-02-11T06:15:36.982Z,6.50
2018-02-11T06:16:36.917Z,6.60
2018-02-11T06:17:36.867Z,5.90
2018-02-11T06:18:36.812Z,5.60
2018-02-11T06:19:36.764Z,5.40
2018-02-11T06:20:36.716Z,5.70
2018-02-11T06:21:36.678Z,6.20
2018-02-11T06:22:36.626Z,5.80
2018-02-11T06:23:36.573Z,6.60
2018-02-11T06:24:36.519Z,5.90
2018-02-11T06:25:36.470Z,6.00
2018-02-11T06:26:36.422Z,5.80
2018-02-11T06:27:36.385Z,5.60
2018-02-11T06:28:36.322Z,5.50
2018-02-11T06:29:36.272Z,5.40
2018-02-11T06:30:36.230Z,5.90
2018-02-11T06:31:36.184Z,5.40
2018-02-11T06:32:36.122Z,5.70
2018-02-11T06:33:36.074Z,6.70
2018-02-11T06:34:36.026Z,6.10
2018-02-11T06:35:35.975Z,5.80
2018-02-11T06:36:35.922Z,6.20
2018-02-11T06:37:35.872Z,6.20
2018-02-11T06:38:35.828Z,6.70
2018-02-11T06:39:35.775Z,6.40
2018-02-11T06:40:35.734Z,6.20
2018-02-11T06:41:35.675Z,6.30
2018-02-11T06:42:35.626Z,7.00
2018-02-11T06:43:35.576Z,6.90
2018-02-11T06:44:35.527Z,6.10
2018-02-11T06:45:35.479Z,5.80
2018-02-11T06:46:35.429Z,5.70
2018-02-11T06:47:35.385Z,6.30
2018-02-11T06:48:35.330Z,6.80
2018-02-11T06:49:35.281Z,5.90
2018-02-11T06:50:35.232Z,6.90
2018-02-11T06:51:35.183Z,7.10
2018-02-11T06:52:35.134Z,6.50
2018-02-11T06:53:35.086Z,7.10
2018-02-11T06:54:35.039Z,6.00
2018-02-11T06:55:34.988Z,6.40
2018-02-11T06:56:34.935Z,6.60
2018-02-11T06:57:34.886Z,6.00
2018-02-11T06:58:34.836Z,6.40
2018-02-11T06:59:34.784Z,6.20
2018-02-11T07:00:34.740Z,6.80
2018-02-11T07:01:34.692Z,6.90
2018-02-11T07:02:34.639Z,6.40
2018-02-11T07:03:34.591Z,6.40
2018-02-11T07:04:34.543Z,6.10
2018-02-11T07:05:34.489Z,6.40
2018-02-11T07:06:34.452Z,6.00
2018-02-11T07:07:34.396Z,6.00
2018-02-11T07:08:34.342Z,5.90
2018-02-11T07:09:34.292Z,6.50
2018-02-11T07:10:34.246Z,6.30
2018-02-11T07:11:34.201Z,6.00
2018-02-11T07:12:34.144Z,5.90
2018-02-11T07:13:34.118Z,6.00
2018-02-11T07:14:34.046Z,6.10
2018-02-11T07:15:34.001Z,6.60
2018-02-11T07:16:33.954Z,6.30
2018-02-11T07:17:33.898Z,6.20
2018-02-11T07:18:33.849Z,5.70
2018-02-11T07:19:33.800Z,5.70
2018-02-11T07:20:33.750Z,5.30
2018-02-11T07:21:33.703Z,5.30
2018-02-11T07:22:33.654Z,6.10
2018-02-11T07:23:33.605Z,5.80
2018-02-11T07:24:33.552Z,5.70
2018-02-11T07:25:33.504Z,5.40
2018-02-11T07:26:33.454Z,5.60
2018-02-11T07:27:33.465Z,5.70
2018-02-11T07:28:33.354Z,5.00
2018-02-11T07:29:33.309Z,5.40
2018-02-11T07:30:33.257Z,5.30
2018-02-11T07:31:33.211Z,5.30
2018-02-11T07:32:33.160Z,5.80
2018-02-11T07:33:33.123Z,5.70
2018-02-11T07:34:33.066Z,5.30
2018-02-11T07:35:33.027Z,4.90
2018-02-11T07:36:32.962Z,4.90
2018-02-11T07:37:32.922Z,4.60
2018-02-11T07:38:32.864Z,5.00
2018-02-11T07:39:32.818Z,5.30
2018-02-11T07:40:32.764Z,5.00
2018-02-11T07:41:32.719Z,4.80
2018-02-11T07:42:32.672Z,4.90
2018-02-11T07:43:32.622Z,5.40
2018-02-11T07:44:32.571Z,3.90
2018-02-11T07:45:32.520Z,3.70
2018-02-11T07:46:32.473Z,3.70
2018-02-11T07:47:32.425Z,4.10
2018-02-11T07:48:32.375Z,3.80
2018-02-11T07:49:32.327Z,3.40
2018-02-11T07:50:32.279Z,3.80
2018-02-11T07:51:32.229Z,3.40
2018-02-11T07:52:32.177Z,3.80
2018-02-11T07:53:32.131Z,3.30
2018-02-11T07:54:32.085Z,3.40
2018-02-11T07:55:32.033Z,3.20
2018-02-11T07:56:31.986Z,3.30
2018-02-11T07:57:31.934Z,3.00
2018-02-11T07:58:31.892Z,3.30
2018-02-11T07:59:31.838Z,3.30
2018-02-11T08:00:31.789Z,3.30
2018-02-11T08:01:31.748Z,3.30
2018-02-11T08:02:31.696Z,3.20
2018-02-11T08:03:31.648Z,3.40
2018-02-11T08:04:31.602Z,3.40
2018-02-11T08:05:31.546Z,3.70
2018-02-11T08:06:31.496Z,3.40
2018-02-11T08:07:31.448Z,3.30
2018-02-11T08:08:31.399Z,3.60
2018-02-11T08:09:31.352Z,3.00
2018-02-11T08:10:31.306Z,3.40
2018-02-11T08:11:31.255Z,3.20
2018-02-11T08:12:31.206Z,3.30
2018-02-11T08:13:31.161Z,3.20
2018-02-11T08:14:31.115Z,2.90
2018-02-11T08:15:31.061Z,3.10
2018-02-11T08:16:31.011Z,2.80
2018-02-11T08:17:30.964Z,2.80
2018-02-11T08:18:30.915Z,2.70
2018-02-11T08:19:30.870Z,3.00
2018-02-11T08:20:30.818Z,2.80
2018-02-11T08:21:30.771Z,2.70
2018-02-11T08:22:30.722Z,2.80
2018-02-11T08:23:30.673Z,3.00
2018-02-11T08:24:30.627Z,2.70
2018-02-11T08:25:30.579Z,3.20
2018-02-11T08:26:30.531Z,3.50
2018-02-11T08:27:30.482Z,2.80
2018-02-11T08:28:30.434Z,2.90
2018-02-11T08:29:30.382Z,3.20
2018-02-11T08:30:30.336Z,3.20
2018-02-11T08:31:30.286Z,3.00
2018-02-11T08:32:30.241Z,3.10
2018-02-11T08:33:30.189Z,2.70
2018-02-11T08:34:30.141Z,3.40
2018-02-11T08:35:30.096Z,3.30
2018-02-11T08:36:30.045Z,3.10
2018-02-11T08:37:29.999Z,3.40
2018-02-11T08:38:29.955Z,2.90
2018-02-11T08:39:29.900Z,2.80
2018-02-11T08:40:29.855Z,2.80
2018-02-11T08:41:30.034Z,3.20
2018-02-11T08:42:29.757Z,3.40
2018-02-11T08:43:29.714Z,3.60
2018-02-11T08:44:29.658Z,3.60
2018-02-11T08:45:29.614Z,3.50
2018-02-11T08:46:29.568Z,4.20
2018-02-11T08:47:29.516Z,4.00
2018-02-11T08:48:29.472Z,4.40
2018-02-11T08:49:29.421Z,4.30
2018-02-11T08:50:29.375Z,5.00
2018-02-11T08:51:29.322Z,4.70
2018-02-11T08:52:29.276Z,4.80
2018-02-11T08:53:29.226Z,4.90
2018-02-11T08:54:29.183Z,5.00
2018-02-11T08:55:29.131Z,5.80
2018-02-11T08:56:29.082Z,5.80
2018-02-11T08:57:29.039Z,5.50
2018-02-11T08:58:28.989Z,5.60
2018-02-11T08:59:28.945Z,5.80
2018-02-11T09:00:28.892Z,5.70
2018-02-11T09:01:28.844Z,6.00
2018-02-11T09:02:28.795Z,6.20
2018-02-11T09:03:28.768Z,5.10
2018-02-11T09:04:28.705Z,5.50
2018-02-11T09:05:28.654Z,5.10
2018-02-11T09:06:28.609Z,5.60
2018-02-11T09:07:28.557Z,5.20
2018-02-11T09:08:28.526Z,5.30
2018-02-11T09:09:28.464Z,4.90
2018-02-11T09:10:28.417Z,4.40
2018-02-11T09:11:28.370Z,5.00
2018-02-11T09:12:28.317Z,4.60
2018-02-11T09:13:28.268Z,4.70
2018-02-11T09:14:28.220Z,4.60
2018-02-11T09:15:28.187Z,4.90
2018-02-11T09:16:28.128Z,4.90
2018-02-11T09:17:28.078Z,5.40
2018-02-11T09:18:28.032Z,5.20
2018-02-11T09:19:27.984Z,5.30
2018-02-11T09:20:27.936Z,5.00
2018-02-11T09:21:27.892Z,6.60
2018-02-11T09:22:27.841Z,5.70
2018-02-11T09:23:27.798Z,5.30
2018-02-11T09:24:27.749Z,5.90
2018-02-11T09:25:27.699Z,4.90
2018-02-11T09:26:27.650Z,5.40
2018-02-11T09:27:27.607Z,5.70
2018-02-11T09:28:27.558Z,5.00
2018-02-11T09:29:27.510Z,4.30
2018-02-11T09:30:27.462Z,5.20
2018-02-11T09:31:27.417Z,5.50
2018-02-11T09:32:27.366Z,5.20
2018-02-11T09:33:27.323Z,5.40
2018-02-11T09:34:27.276Z,6.30
2018-02-11T09:35:27.228Z,5.80
2018-02-11T09:36:27.178Z,6.50
2018-02-11T09:37:27.134Z,6.80
2018-02-11T09:38:27.089Z,6.30
2018-02-11T09:39:27.041Z,6.80
2018-02-11T09:40:26.993Z,6.80
2018-02-11T09:41:26.942Z,7.10
2018-02-11T09:42:26.896Z,6.00
2018-02-11T09:43:26.854Z,6.30
2018-02-11T09:44:26.804Z,6.70
2018-02-11T09:45:26.757Z,7.00
2018-02-11T09:46:26.711Z,6.60
2018-02-11T09:47:26.662Z,6.70
2018-02-11T09:48:26.612Z,6.60
2018-02-11T09:49:26.570Z,6.50
2018-02-11T09:50:26.518Z,6.50
2018-02-11T09:51:26.474Z,7.10
2018-02-11T09:52:26.429Z,6.50
2018-02-11T09:53:26.381Z,7.50
2018-02-11T09:54:26.331Z,6.20
2018-02-11T09:55:26.288Z,6.00
2018-02-11T09:56:26.235Z,5.60
2018-02-11T09:57:26.190Z,6.20
2018-02-11T09:58:26.143Z,5.90
2018-02-11T09:59:26.098Z,6.60
2018-02-11T10:00:26.048Z,6.60
2018-02-11T10:01:26.005Z,5.50
2018-02-11T10:02:25.958Z,6.20
2018-02-11T10:03:25.914Z,5.40
2018-02-11T10:04:25.861Z,4.70
2018-02-11T10:05:25.818Z,5.30
2018-02-11T10:06:25.768Z,4.90
2018-02-11T10:07:25.724Z,4.20
2018-02-11T10:08:25.674Z,4.90
2018-02-11T10:09:25.627Z,4.20
2018-02-11T10:10:25.583Z,4.70
2018-02-11T10:11:25.538Z,4.20
2018-02-11T10:12:25.490Z,4.20
2018-02-11T10:13:25.443Z,3.80
2018-02-11T10:14:25.394Z,4.80
2018-02-11T10:15:25.351Z,4.70
2018-02-11T10:16:25.303Z,4.70
2018-02-11T10:17:25.258Z,4.90
2018-02-11T10:18:25.207Z,4.40
2018-02-11T10:19:25.161Z,4.90
2018-02-11T10:20:25.114Z,4.80
2018-02-11T10:21:25.068Z,4.70
2018-02-11T10:22:25.023Z,4.70
2018-02-11T10:23:24.976Z,4.50
2018-02-11T10:24:24.929Z,4.70
2018-02-11T10:25:24.883Z,4.70
2018-02-11T10:26:24.839Z,4.90
2018-02-11T10:27:24.795Z,10.60
2018-02-11T10:28:24.745Z,4.30
2018-02-11T10:29:24.698Z,4.70
2018-02-11T10:30:24.653Z,4.60
2018-02-11T10:31:24.614Z,4.70
2018-02-11T10:32:24.560Z,4.20
2018-02-11T10:33:24.514Z,4.90
2018-02-11T10:34:24.466Z,4.90
2018-02-11T10:35:24.429Z,4.30
2018-02-11T10:36:24.374Z,4.40
2018-02-11T10:37:24.328Z,4.40
2018-02-11T10:38:24.283Z,4.30
2018-02-11T10:39:24.234Z,4.60
2018-02-11T10:40:24.191Z,4.10
2018-02-11T10:41:24.145Z,4.70
2018-02-11T10:42:24.098Z,4.50
2018-02-11T10:43:24.052Z,7.00
2018-02-11T10:44:24.006Z,4.90
2018-02-11T10:45:23.960Z,4.50
2018-02-11T10:46:23.911Z,4.70
2018-02-11T10:47:23.867Z,4.90
2018-02-11T10:48:23.820Z,5.00
2018-02-11T10:49:23.776Z,4.90
2018-02-11T10:50:23.731Z,5.30
2018-02-11T10:51:23.694Z,5.50
2018-02-11T10:52:23.635Z,6.00
2018-02-11T10:53:23.589Z,5.80
2018-02-11T10:54:23.556Z,6.20
2018-02-11T10:55:23.500Z,6.60
2018-02-11T10:56:23.449Z,6.70
2018-02-11T10:57:23.408Z,6.70
2018-02-11T10:58:23.360Z,6.80
2018-02-11T10:59:23.317Z,6.70
2018-02-11T11:00:23.267Z,7.30
2018-02-11T11:01:23.225Z,6.50
2018-02-11T11:02:23.178Z,6.20
2018-02-11T11:03:23.130Z,6.50
2018-02-11T11:04:23.084Z,6.40
2018-02-11T11:05:23.041Z,6.10
2018-02-11T11:06:22.996Z,11.40
2018-02-11T11:07:22.947Z,13.50
2018-02-11T11:08:22.900Z,5.10
2018-02-11T11:09:22.854Z,5.30
2018-02-11T11:10:22.819Z,5.40
2018-02-11T11:11:22.764Z,5.00
2018-02-11T11:12:22.721Z,5.40
2018-02-11T11:13:22.673Z,5.60
2018-02-11T11:14:22.630Z,5.70
2018-02-11T11:15:22.581Z,5.40
2018-02-11T11:16:22.535Z,4.90
2018-02-11T11:17:22.488Z,5.40
2018-02-11T11:18:22.442Z,5.10
2018-02-11T11:19:22.401Z,5.50
2018-02-11T11:20:22.371Z,5.10
2018-02-11T11:21:22.305Z,5.50
2018-02-11T11:22:22.259Z,5.40
2018-02-11T11:23:22.215Z,5.50
2018-02-11T11:24:22.174Z,5.70
2018-02-11T11:25:22.121Z,5.60
2018-02-11T11:26:24.884Z,6.10
2018-02-11T11:27:22.036Z,5.80
2018-02-11T11:28:21.988Z,6.20
2018-02-11T11:29:21.938Z,6.00
2018-02-11T11:30:21.898Z,6.40
2018-02-11T11:31:21.875Z,7.80
2018-02-11T11:32:21.801Z,6.30
2018-02-11T11:33:21.755Z,6.60
2018-02-11T11:34:21.709Z,6.50
2018-02-11T11:35:21.661Z,5.80
2018-02-11T11:36:21.615Z,6.10
2018-02-11T11:37:21.583Z,6.60
2018-02-11T11:38:21.530Z,6.10
2018-02-11T11:39:21.478Z,6.30
2018-02-11T11:40:21.438Z,5.90
2018-02-11T11:41:21.386Z,6.10
2018-02-11T11:42:21.340Z,6.40
2018-02-11T11:43:21.294Z,5.60
2018-02-11T11:44:21.305Z,5.80
2018-02-11T11:45:21.204Z,6.00
2018-02-11T11:46:21.163Z,6.30
2018-02-11T11:47:21.113Z,5.50
2018-02-11T11:48:21.070Z,5.30
2018-02-11T11:49:21.020Z,4.30
2018-02-11T11:50:20.974Z,4.10
2018-02-11T11:51:20.929Z,3.70
2018-02-11T11:52:20.883Z,3.00
2018-02-11T11:53:20.838Z,2.90
2018-02-11T11:54:20.790Z,3.50
2018-02-11T11:55:20.746Z,3.60
2018-02-11T11:56:20.697Z,3.10
2018-02-11T11:57:20.650Z,3.70
2018-02-11T11:58:20.603Z,4.00
2018-02-11T11:59:20.559Z,4.00
2018-02-11T12:00:20.516Z,4.20
2018-02-11T12:01:20.476Z,3.30
2018-02-11T12:02:20.427Z,4.00
2018-02-11T12:03:20.375Z,3.50
2018-02-11T12:04:20.331Z,3.40
2018-02-11T12:05:20.284Z,3.80
2018-02-11T12:06:20.238Z,3.70
2018-02-11T12:07:20.189Z,3.60
2018-02-11T12:08:20.145Z,4.10
2018-02-11T12:09:20.110Z,4.00
2018-02-11T12:10:20.054Z,3.50
2018-02-11T12:11:20.006Z,3.70
2018-02-11T12:12:19.957Z,3.30
2018-02-11T12:13:19.914Z,3.40
2018-02-11T12:14:19.864Z,3.40
2018-02-11T12:15:19.819Z,3.00
2018-02-11T12:16:19.774Z,3.50
2018-02-11T12:17:19.731Z,3.40
2018-02-11T12:18:19.684Z,3.50
2018-02-11T12:19:19.634Z,3.40
2018-02-11T12:20:19.590Z,3.20
2018-02-11T12:21:19.541Z,3.10
2018-02-11T12:22:19.496Z,3.00
2018-02-11T12:23:19.447Z,2.70
2018-02-11T12:24:19.402Z,3.00
2018-02-11T12:25:19.357Z,3.30
2018-02-11T12:26:19.306Z,3.30
2018-02-11T12:27:19.259Z,3.00
2018-02-11T12:28:19.216Z,2.80
2018-02-11T12:29:19.165Z,2.70
2018-02-11T12:30:19.126Z,2.30
2018-02-11T12:31:19.073Z,2.50
2018-02-11T12:32:19.029Z,2.80
2018-02-11T12:33:18.981Z,2.80
2018-02-11T12:34:18.933Z,2.70
2018-02-11T12:35:18.890Z,2.60
2018-02-11T12:36:18.840Z,2.30
2018-02-11T12:37:18.793Z,2.10
2018-02-11T12:38:18.747Z,2.70
2018-02-11T12:39:18.705Z,2.60
2018-02-11T12:40:18.655Z,2.40
2018-02-11T12:41:18.606Z,2.10
2018-02-11T12:42:18.558Z,2.50
2018-02-11T12:43:18.515Z,2.50
2018-02-11T12:44:18.464Z,2.50
2018-02-11T12:45:18.422Z,2.00
2018-02-11T12:46:18.379Z,2.30
2018-02-11T12:47:18.326Z,2.30
2018-02-11T12:48:18.277Z,2.20
2018-02-11T12:49:18.231Z,2.80
2018-02-11T12:50:18.183Z,2.50
2018-02-11T12:51:18.139Z,2.20
2018-02-11T12:52:18.088Z,2.40
2018-02-11T12:53:18.046Z,2.90
2018-02-11T12:54:18.002Z,3.00
2018-02-11T12:55:17.956Z,3.20
2018-02-11T12:56:17.927Z,3.70
2018-02-11T12:57:17.859Z,3.50
2018-02-11T12:58:17.807Z,4.40
2018-02-11T12:59:17.763Z,3.50
2018-02-11T13:00:17.714Z,5.20
2018-02-11T13:01:17.667Z,4.90
2018-02-11T13:02:17.619Z,4.30
2018-02-11T13:03:17.571Z,3.50
2018-02-11T13:04:17.524Z,3.10
2018-02-11T13:05:17.479Z,3.60
2018-02-11T13:06:17.440Z,4.30
2018-02-11T13:07:17.381Z,3.90
2018-02-11T13:08:17.336Z,3.40
2018-02-11T13:09:17.291Z,3.30
2018-02-11T13:10:17.240Z,2.90
2018-02-11T13:11:17.199Z,3.10
2018-02-11T13:12:17.147Z,2.60
2018-02-11T13:13:17.098Z,2.70
2018-02-11T13:14:17.051Z,2.90
2018-02-11T13:15:17.043Z,2.80
2018-02-11T13:16:16.958Z,2.60
2018-02-11T13:17:16.913Z,2.40